Hikarimaru No.17 — JD2956 — position and weather

sailwx.info

Track history (hours):
 
Tides and Currents Weather Stations Pressure Air Temp Water Temp Dewpoint Dewpoint Depression Visibility Wind Speed Wind Dir Waves Ship Positions

Hikarimaru No.17

Last reported at 2014-Dec-19 13:31 UTC. Time now 2014-Dec-19 14:26 UTC.
Position N 34°10' E 135°09'.

Length 105 m; draft 5.5 m.

Type: Tanker. MMSI: 431000984.

Date/timePositionNaut miles runAvg speedWind from/ knotsBaromVisibWave heightAir tempDewpointWater temp
2014-Dec-19 13:31N 34°10' E 135°09'0 0.0
2014-Dec-19 12:31N 34°10' E 135°09'0 0.0
2014-Dec-19 11:31N 34°10' E 135°09'0 0.1
2014-Dec-19 10:25N 34°10' E 135°09'2 2.0
2014-Dec-19 09:33N 34°09' E 135°08'2 0.4
2014-Dec-19 05:28N 34°07' E 135°07'1 0.7
2014-Dec-19 04:31N 34°08' E 135°07'1 0.9
2014-Dec-19 03:34N 34°09' E 135°07'4 3.9
2014-Dec-19 02:32N 34°12' E 135°09'0 0.0
2014-Dec-19 01:32N 34°12' E 135°09'1 1.0
2014-Dec-19 00:33N 34°13' E 135°08'3 3.3
2014-Dec-18 23:33N 34°10' E 135°08'0 0.0
2014-Dec-18 22:27N 34°10' E 135°08'0 0.0
2014-Dec-18 21:30N 34°10' E 135°08'0 0.0
2014-Dec-18 20:33N 34°10' E 135°08'0 0.1
2014-Dec-18 19:33N 34°10' E 135°08'0 0.0
2014-Dec-18 18:33N 34°10' E 135°08'0 0.0
2014-Dec-18 17:30N 34°10' E 135°08'0 0.0
2014-Dec-18 16:33N 34°10' E 135°08'0 0.0
2014-Dec-18 15:33N 34°10' E 135°08'0 0.0
2014-Dec-18 14:33N 34°10' E 135°08'0 0.0
2014-Dec-18 13:33N 34°10' E 135°08'0 0.0
2014-Dec-18 12:33N 34°10' E 135°08'0 0.0
2014-Dec-18 11:33N 34°10' E 135°08'0 0.0
2014-Dec-18 10:33N 34°10' E 135°08'0 0.0
2014-Dec-18 09:33N 34°10' E 135°08'0 0.0
2014-Dec-18 08:33N 34°10' E 135°08'0 0.0
2014-Dec-18 07:33N 34°10' E 135°08'0 0.1
2014-Dec-18 06:33N 34°10' E 135°08'0 0.0
2014-Dec-18 05:33N 34°10' E 135°08'0 0.0
2014-Dec-18 04:33N 34°10' E 135°08'0 0.0
2014-Dec-18 03:33N 34°10' E 135°08'0 0.0
2014-Dec-18 02:33N 34°10' E 135°08'0 0.0
2014-Dec-18 01:33N 34°10' E 135°08'0 0.0
2014-Dec-18 00:33N 34°10' E 135°08'0 0.0
2014-Dec-17 23:33N 34°10' E 135°08'0 0.0
2014-Dec-17 22:33N 34°10' E 135°08'0 0.0
2014-Dec-17 21:33N 34°10' E 135°08'0 0.0
2014-Dec-17 20:33N 34°10' E 135°08'0 0.0
2014-Dec-17 19:33N 34°10' E 135°08'0 0.0
2014-Dec-17 18:33N 34°10' E 135°08'0 0.0
2014-Dec-17 17:33N 34°10' E 135°08'0 0.0
2014-Dec-17 16:33N 34°10' E 135°08'0 0.0
2014-Dec-17 15:30N 34°10' E 135°08'0 0.0
2014-Dec-17 14:33N 34°10' E 135°08'0 0.0
2014-Dec-17 13:33N 34°10' E 135°08'0 0.0
2014-Dec-17 12:27N 34°10' E 135°08'0 0.0
2014-Dec-17 11:33N 34°10' E 135°08'0 0.0
2014-Dec-17 10:33N 34°10' E 135°08'0 0.0
2014-Dec-17 09:33N 34°10' E 135°08'0 0.0
2014-Dec-17 08:33N 34°10' E 135°08'0 0.0
2014-Dec-17 07:33N 34°10' E 135°08'0 0.0
2014-Dec-17 06:27N 34°10' E 135°08'0 0.0
2014-Dec-17 05:27N 34°10' E 135°08'7 7.1
2014-Dec-17 04:31N 34°06' E 135°02'1 0.2
2014-Dec-16 21:23N 34°05' E 135°03'7 7.9
2014-Dec-16 20:34N 34°09' E 135°08'0 0.0
2014-Dec-16 19:30N 34°09' E 135°08'0 0.0
2014-Dec-16 18:33N 34°09' E 135°08'0 0.0
2014-Dec-16 17:33N 34°09' E 135°08'0 0.0
2014-Dec-16 16:33N 34°09' E 135°08'0 0.0
2014-Dec-16 15:30N 34°09' E 135°08'0 0.0
2014-Dec-16 14:33N 34°09' E 135°08'0 0.0
2014-Dec-16 13:33N 34°09' E 135°08'0 0.0
2014-Dec-16 12:30N 34°09' E 135°08'0 0.0
2014-Dec-16 11:30N 34°09' E 135°08'0 0.0
2014-Dec-16 10:33N 34°09' E 135°08'0 0.0
2014-Dec-16 09:33N 34°09' E 135°08'0 0.0
2014-Dec-16 08:33N 34°09' E 135°08'0 0.0
2014-Dec-16 07:33N 34°09' E 135°08'0 0.0
2014-Dec-16 06:33N 34°09' E 135°08'0 0.0
2014-Dec-16 05:33N 34°09' E 135°08'1 1.3
2014-Dec-16 04:33N 34°08' E 135°07'1 0.2
2014-Dec-16 00:07N 34°07' E 135°07'3 3.6
2014-Dec-15 23:21N 34°10' E 135°09'0 0.1
2014-Dec-15 22:33N 34°10' E 135°09'0 0.1
2014-Dec-15 21:33N 34°10' E 135°09'0 0.0
2014-Dec-15 20:33N 34°10' E 135°09'0 0.0
2014-Dec-15 19:30N 34°10' E 135°09'0 0.0
2014-Dec-15 18:33N 34°10' E 135°09'0 0.0
2014-Dec-15 17:33N 34°10' E 135°09'0 0.0
2014-Dec-15 16:33N 34°10' E 135°09'0 0.0
2014-Dec-15 15:33N 34°10' E 135°09'0 0.0
2014-Dec-15 14:33N 34°10' E 135°09'0 0.0
2014-Dec-15 13:33N 34°10' E 135°09'0 0.0
2014-Dec-15 12:33N 34°10' E 135°09'0 0.0
2014-Dec-15 11:33N 34°10' E 135°09'0 0.0
2014-Dec-15 10:33N 34°10' E 135°09'0 0.0
2014-Dec-15 09:30N 34°10' E 135°09'8 8.3
2014-Dec-15 08:33N 34°04' E 135°03'2 0.3
2014-Dec-15 02:25N 34°02' E 135°03'1011.3
2014-Dec-15 01:34N 34°10' E 135°09'0 0.2
2014-Dec-15 00:31N 34°10' E 135°09'0 0.0
2014-Dec-14 23:31N 34°10' E 135°09'0 0.0
2014-Dec-14 22:28N 34°10' E 135°09'0 0.0
2014-Dec-14 21:31N 34°10' E 135°09'0 0.0
2014-Dec-14 20:28N 34°10' E 135°09'0 0.0
2014-Dec-14 19:31N 34°10' E 135°09'0 0.0
2014-Dec-14 18:31N 34°10' E 135°09'0 0.0
2014-Dec-14 17:31N 34°10' E 135°09'0 0.0
2014-Dec-14 16:31N 34°10' E 135°09'0 0.0
2014-Dec-14 15:31N 34°10' E 135°09'0 0.0
2014-Dec-14 14:31N 34°10' E 135°09'0 0.0
2014-Dec-14 13:28N 34°10' E 135°09'0 0.0
2014-Dec-14 12:31N 34°10' E 135°09'0 0.0
2014-Dec-14 11:31N 34°10' E 135°09'0 0.0
2014-Dec-14 10:31N 34°10' E 135°09'0 0.0
2014-Dec-14 09:31N 34°10' E 135°09'0 0.0
2014-Dec-14 08:28N 34°10' E 135°09'0 0.1
2014-Dec-14 07:32N 34°10' E 135°09'1111.0
2014-Dec-14 06:29N 34°18' E 134°59'1212.9
2014-Dec-14 05:32N 34°30' E 135°02'8 7.4
2014-Dec-14 04:30N 34°36' E 134°57'4 0.1
2014-Dec-12 07:25N 34°35' E 134°52'910.6
2014-Dec-12 06:34N 34°36' E 135°03'1412.2
2014-Dec-12 05:26N 34°22' E 135°02'1213.4
2014-Dec-12 04:33N 34°11' E 134°60'8 1.2
2014-Dec-11 21:33N 34°03' E 135°03'8 8.0
2014-Dec-11 20:33N 34°10' E 135°08'0 0.0
2014-Dec-11 19:33N 34°10' E 135°08'0 0.0
2014-Dec-11 18:33N 34°10' E 135°08'0 0.0
2014-Dec-11 17:33N 34°10' E 135°08'0 0.0
2014-Dec-11 16:33N 34°10' E 135°08'0 0.1
2014-Dec-11 15:33N 34°10' E 135°08'0 0.0
2014-Dec-11 14:27N 34°10' E 135°08'0 0.0
2014-Dec-11 13:30N 34°10' E 135°08'0 0.1
2014-Dec-11 12:33N 34°10' E 135°08'0 0.0
2014-Dec-11 11:33N 34°10' E 135°08'0 0.0
2014-Dec-11 10:33N 34°10' E 135°08'0 0.0
2014-Dec-11 09:33N 34°10' E 135°08'10 9.6
2014-Dec-11 08:33N 34°15' E 134°59'1212.4
2014-Dec-11 07:33N 34°26' E 135°08'1312.9
2014-Dec-11 06:33N 34°32' E 135°21'3 0.6
2014-Dec-11 01:33N 34°33' E 135°24'4 3.2
2014-Dec-11 00:19N 34°32' E 135°20'0 0.1
2014-Dec-10 23:19N 34°32' E 135°20'0 0.0
2014-Dec-10 22:31N 34°32' E 135°20'0 0.0
2014-Dec-10 21:19N 34°32' E 135°20'0 0.1
2014-Dec-10 20:31N 34°32' E 135°20'0 0.0
2014-Dec-10 19:25N 34°32' E 135°20'0 0.0
2014-Dec-10 18:13N 34°32' E 135°20'0 0.0
2014-Dec-10 17:13N 34°32' E 135°20'0 0.0
2014-Dec-10 16:31N 34°32' E 135°20'0 0.0
2014-Dec-10 15:31N 34°32' E 135°20'0 0.0
2014-Dec-10 14:31N 34°32' E 135°20'0 0.0
2014-Dec-10 13:25N 34°32' E 135°20'0 0.0
2014-Dec-10 12:25N 34°32' E 135°20'0 0.0
2014-Dec-10 11:25N 34°32' E 135°20'0 0.1
2014-Dec-10 10:25N 34°32' E 135°20'0 0.0
2014-Dec-10 09:31N 34°32' E 135°20'0 0.0
2014-Dec-10 08:25N 34°32' E 135°20'0 0.1
2014-Dec-10 07:31N 34°32' E 135°20'0 0.0
2014-Dec-10 06:31N 34°32' E 135°20'0 0.1
2014-Dec-10 05:31N 34°32' E 135°20'1312.5
2014-Dec-10 04:31N 34°24' E 135°08'1111.3
2014-Dec-10 03:33N 34°15' E 135°01'1110.8
2014-Dec-10 02:33N 34°09' E 135°11'0 0.0
2014-Dec-10 01:33N 34°09' E 135°11'0 0.0
2014-Dec-10 00:33N 34°09' E 135°11'0 0.0
2014-Dec-09 23:33N 34°09' E 135°11'2 2.0
2014-Dec-09 22:32N 34°09' E 135°09'0 0.0
2014-Dec-09 21:29N 34°09' E 135°09'0 0.0
2014-Dec-09 20:32N 34°09' E 135°09'0 0.0
2014-Dec-09 19:32N 34°09' E 135°09'0 0.0
2014-Dec-09 18:32N 34°09' E 135°09'0 0.0
2014-Dec-09 17:32N 34°09' E 135°09'0 0.0
2014-Dec-09 16:32N 34°09' E 135°09'0 0.0
2014-Dec-09 15:32N 34°09' E 135°09'0 0.0
2014-Dec-09 14:32N 34°09' E 135°09'0 0.0
2014-Dec-09 13:32N 34°09' E 135°09'  
Track history (hours):
 
Tides and Currents Weather Stations Pressure Air Temp Water Temp Dewpoint Dewpoint Depression Visibility Wind Speed Wind Dir Waves Ship Positions

Hikarimaru No.17

Last reported at 2014-Dec-19 13:31 UTC. Time now 2014-Dec-19 14:26 UTC.
Position N 34°10' E 135°09'.

Length 105 m; draft 5.5 m.

Type: Tanker. MMSI: 431000984.

Date/timePositionNaut miles runAvg speedWind from/ knotsBaromVisibWave heightAir tempDewpointWater temp
2014-Dec-19 13:31N 34°10' E 135°09'0 0.0
2014-Dec-19 12:31N 34°10' E 135°09'0 0.0
2014-Dec-19 11:31N 34°10' E 135°09'0 0.1
2014-Dec-19 10:25N 34°10' E 135°09'2 2.0
2014-Dec-19 09:33N 34°09' E 135°08'2 0.4
2014-Dec-19 05:28N 34°07' E 135°07'1 0.7
2014-Dec-19 04:31N 34°08' E 135°07'1 0.9
2014-Dec-19 03:34N 34°09' E 135°07'4 3.9
2014-Dec-19 02:32N 34°12' E 135°09'0 0.0
2014-Dec-19 01:32N 34°12' E 135°09'1 1.0
2014-Dec-19 00:33N 34°13' E 135°08'3 3.3
2014-Dec-18 23:33N 34°10' E 135°08'0 0.0
2014-Dec-18 22:27N 34°10' E 135°08'0 0.0
2014-Dec-18 21:30N 34°10' E 135°08'0 0.0
2014-Dec-18 20:33N 34°10' E 135°08'0 0.1
2014-Dec-18 19:33N 34°10' E 135°08'0 0.0
2014-Dec-18 18:33N 34°10' E 135°08'0 0.0
2014-Dec-18 17:30N 34°10' E 135°08'0 0.0
2014-Dec-18 16:33N 34°10' E 135°08'0 0.0
2014-Dec-18 15:33N 34°10' E 135°08'0 0.0
2014-Dec-18 14:33N 34°10' E 135°08'0 0.0
2014-Dec-18 13:33N 34°10' E 135°08'0 0.0
2014-Dec-18 12:33N 34°10' E 135°08'0 0.0
2014-Dec-18 11:33N 34°10' E 135°08'0 0.0
2014-Dec-18 10:33N 34°10' E 135°08'0 0.0
2014-Dec-18 09:33N 34°10' E 135°08'0 0.0
2014-Dec-18 08:33N 34°10' E 135°08'0 0.0
2014-Dec-18 07:33N 34°10' E 135°08'0 0.1
2014-Dec-18 06:33N 34°10' E 135°08'0 0.0
2014-Dec-18 05:33N 34°10' E 135°08'0 0.0
2014-Dec-18 04:33N 34°10' E 135°08'0 0.0
2014-Dec-18 03:33N 34°10' E 135°08'0 0.0
2014-Dec-18 02:33N 34°10' E 135°08'0 0.0
2014-Dec-18 01:33N 34°10' E 135°08'0 0.0
2014-Dec-18 00:33N 34°10' E 135°08'0 0.0
2014-Dec-17 23:33N 34°10' E 135°08'0 0.0
2014-Dec-17 22:33N 34°10' E 135°08'0 0.0
2014-Dec-17 21:33N 34°10' E 135°08'0 0.0
2014-Dec-17 20:33N 34°10' E 135°08'0 0.0
2014-Dec-17 19:33N 34°10' E 135°08'0 0.0
2014-Dec-17 18:33N 34°10' E 135°08'0 0.0
2014-Dec-17 17:33N 34°10' E 135°08'0 0.0
2014-Dec-17 16:33N 34°10' E 135°08'0 0.0
2014-Dec-17 15:30N 34°10' E 135°08'0 0.0
2014-Dec-17 14:33N 34°10' E 135°08'0 0.0
2014-Dec-17 13:33N 34°10' E 135°08'0 0.0
2014-Dec-17 12:27N 34°10' E 135°08'0 0.0
2014-Dec-17 11:33N 34°10' E 135°08'0 0.0
2014-Dec-17 10:33N 34°10' E 135°08'0 0.0
2014-Dec-17 09:33N 34°10' E 135°08'0 0.0
2014-Dec-17 08:33N 34°10' E 135°08'0 0.0
2014-Dec-17 07:33N 34°10' E 135°08'0 0.0
2014-Dec-17 06:27N 34°10' E 135°08'0 0.0
2014-Dec-17 05:27N 34°10' E 135°08'7 7.1
2014-Dec-17 04:31N 34°06' E 135°02'1 0.2
2014-Dec-16 21:23N 34°05' E 135°03'7 7.9
2014-Dec-16 20:34N 34°09' E 135°08'0 0.0
2014-Dec-16 19:30N 34°09' E 135°08'0 0.0
2014-Dec-16 18:33N 34°09' E 135°08'0 0.0
2014-Dec-16 17:33N 34°09' E 135°08'0 0.0
2014-Dec-16 16:33N 34°09' E 135°08'0 0.0
2014-Dec-16 15:30N 34°09' E 135°08'0 0.0
2014-Dec-16 14:33N 34°09' E 135°08'0 0.0
2014-Dec-16 13:33N 34°09' E 135°08'0 0.0
2014-Dec-16 12:30N 34°09' E 135°08'0 0.0
2014-Dec-16 11:30N 34°09' E 135°08'0 0.0
2014-Dec-16 10:33N 34°09' E 135°08'0 0.0
2014-Dec-16 09:33N 34°09' E 135°08'0 0.0
2014-Dec-16 08:33N 34°09' E 135°08'0 0.0
2014-Dec-16 07:33N 34°09' E 135°08'0 0.0
2014-Dec-16 06:33N 34°09' E 135°08'0 0.0
2014-Dec-16 05:33N 34°09' E 135°08'1 1.3
2014-Dec-16 04:33N 34°08' E 135°07'1 0.2
2014-Dec-16 00:07N 34°07' E 135°07'3 3.6
2014-Dec-15 23:21N 34°10' E 135°09'0 0.1
2014-Dec-15 22:33N 34°10' E 135°09'0 0.1
2014-Dec-15 21:33N 34°10' E 135°09'0 0.0
2014-Dec-15 20:33N 34°10' E 135°09'0 0.0
2014-Dec-15 19:30N 34°10' E 135°09'0 0.0
2014-Dec-15 18:33N 34°10' E 135°09'0 0.0
2014-Dec-15 17:33N 34°10' E 135°09'0 0.0
2014-Dec-15 16:33N 34°10' E 135°09'0 0.0
2014-Dec-15 15:33N 34°10' E 135°09'0 0.0
2014-Dec-15 14:33N 34°10' E 135°09'0 0.0
2014-Dec-15 13:33N 34°10' E 135°09'0 0.0
2014-Dec-15 12:33N 34°10' E 135°09'0 0.0
2014-Dec-15 11:33N 34°10' E 135°09'0 0.0
2014-Dec-15 10:33N 34°10' E 135°09'0 0.0
2014-Dec-15 09:30N 34°10' E 135°09'8 8.3
2014-Dec-15 08:33N 34°04' E 135°03'2 0.3
2014-Dec-15 02:25N 34°02' E 135°03'1011.3
2014-Dec-15 01:34N 34°10' E 135°09'0 0.2
2014-Dec-15 00:31N 34°10' E 135°09'0 0.0
2014-Dec-14 23:31N 34°10' E 135°09'0 0.0
2014-Dec-14 22:28N 34°10' E 135°09'0 0.0
2014-Dec-14 21:31N 34°10' E 135°09'0 0.0
2014-Dec-14 20:28N 34°10' E 135°09'0 0.0
2014-Dec-14 19:31N 34°10' E 135°09'0 0.0
2014-Dec-14 18:31N 34°10' E 135°09'0 0.0
2014-Dec-14 17:31N 34°10' E 135°09'0 0.0
2014-Dec-14 16:31N 34°10' E 135°09'0 0.0
2014-Dec-14 15:31N 34°10' E 135°09'0 0.0
2014-Dec-14 14:31N 34°10' E 135°09'0 0.0
2014-Dec-14 13:28N 34°10' E 135°09'0 0.0
2014-Dec-14 12:31N 34°10' E 135°09'0 0.0
2014-Dec-14 11:31N 34°10' E 135°09'0 0.0
2014-Dec-14 10:31N 34°10' E 135°09'0 0.0
2014-Dec-14 09:31N 34°10' E 135°09'0 0.0
2014-Dec-14 08:28N 34°10' E 135°09'0 0.1
2014-Dec-14 07:32N 34°10' E 135°09'1111.0
2014-Dec-14 06:29N 34°18' E 134°59'1212.9
2014-Dec-14 05:32N 34°30' E 135°02'8 7.4
2014-Dec-14 04:30N 34°36' E 134°57'4 0.1
2014-Dec-12 07:25N 34°35' E 134°52'910.6
2014-Dec-12 06:34N 34°36' E 135°03'1412.2
2014-Dec-12 05:26N 34°22' E 135°02'1213.4
2014-Dec-12 04:33N 34°11' E 134°60'8 1.2
2014-Dec-11 21:33N 34°03' E 135°03'8 8.0
2014-Dec-11 20:33N 34°10' E 135°08'0 0.0
2014-Dec-11 19:33N 34°10' E 135°08'0 0.0
2014-Dec-11 18:33N 34°10' E 135°08'0 0.0
2014-Dec-11 17:33N 34°10' E 135°08'0 0.0
2014-Dec-11 16:33N 34°10' E 135°08'0 0.1
2014-Dec-11 15:33N 34°10' E 135°08'0 0.0
2014-Dec-11 14:27N 34°10' E 135°08'0 0.0
2014-Dec-11 13:30N 34°10' E 135°08'0 0.1
2014-Dec-11 12:33N 34°10' E 135°08'0 0.0
2014-Dec-11 11:33N 34°10' E 135°08'0 0.0
2014-Dec-11 10:33N 34°10' E 135°08'0 0.0
2014-Dec-11 09:33N 34°10' E 135°08'10 9.6
2014-Dec-11 08:33N 34°15' E 134°59'1212.4
2014-Dec-11 07:33N 34°26' E 135°08'1312.9
2014-Dec-11 06:33N 34°32' E 135°21'3 0.6
2014-Dec-11 01:33N 34°33' E 135°24'4 3.2
2014-Dec-11 00:19N 34°32' E 135°20'0 0.1
2014-Dec-10 23:19N 34°32' E 135°20'0 0.0
2014-Dec-10 22:31N 34°32' E 135°20'0 0.0
2014-Dec-10 21:19N 34°32' E 135°20'0 0.1
2014-Dec-10 20:31N 34°32' E 135°20'0 0.0
2014-Dec-10 19:25N 34°32' E 135°20'0 0.0
2014-Dec-10 18:13N 34°32' E 135°20'0 0.0
2014-Dec-10 17:13N 34°32' E 135°20'0 0.0
2014-Dec-10 16:31N 34°32' E 135°20'0 0.0
2014-Dec-10 15:31N 34°32' E 135°20'0 0.0
2014-Dec-10 14:31N 34°32' E 135°20'0 0.0
2014-Dec-10 13:25N 34°32' E 135°20'0 0.0
2014-Dec-10 12:25N 34°32' E 135°20'0 0.0
2014-Dec-10 11:25N 34°32' E 135°20'0 0.1
2014-Dec-10 10:25N 34°32' E 135°20'0 0.0
2014-Dec-10 09:31N 34°32' E 135°20'0 0.0
2014-Dec-10 08:25N 34°32' E 135°20'0 0.1
2014-Dec-10 07:31N 34°32' E 135°20'0 0.0
2014-Dec-10 06:31N 34°32' E 135°20'0 0.1
2014-Dec-10 05:31N 34°32' E 135°20'1312.5
2014-Dec-10 04:31N 34°24' E 135°08'1111.3
2014-Dec-10 03:33N 34°15' E 135°01'1110.8
2014-Dec-10 02:33N 34°09' E 135°11'0 0.0
2014-Dec-10 01:33N 34°09' E 135°11'0 0.0
2014-Dec-10 00:33N 34°09' E 135°11'0 0.0
2014-Dec-09 23:33N 34°09' E 135°11'2 2.0
2014-Dec-09 22:32N 34°09' E 135°09'0 0.0
2014-Dec-09 21:29N 34°09' E 135°09'0 0.0
2014-Dec-09 20:32N 34°09' E 135°09'0 0.0
2014-Dec-09 19:32N 34°09' E 135°09'0 0.0
2014-Dec-09 18:32N 34°09' E 135°09'0 0.0
2014-Dec-09 17:32N 34°09' E 135°09'0 0.0
2014-Dec-09 16:32N 34°09' E 135°09'0 0.0
2014-Dec-09 15:32N 34°09' E 135°09'0 0.0
2014-Dec-09 14:32N 34°09' E 135°09'0 0.0
2014-Dec-09 13:32N 34°09' E 135°09'  

Dump ship's entire track history